Skip Navigation LinksHome page > Weather > Current weather Skip Navigation Links

Current Weather

Lansing Muni, Lansing, Ill.

For information only: do not use for flight planning or navigation.
Latest weather
Observation time Thursday, January 27, 2022 11:15 PM CST
Local time Thursday, January 27, 2022 11:25 PM CST
Flight conditions Visual Meteorological Conditions
Winds
Wind direction North-Northeast (20°)
Wind speed 7 mph
Visibility 10 mi.
Sky condition
Ceiling 4,100 ft. overcast
Cloud layer scattered clouds 2,700 ft.
Cloud layer scattered clouds 3,200 ft.
Cloud layer overcast 4,100 ft.
Temperature 29°F
Dewpoint 19°F
Altimeter 30.21 in.Hg
Derived measurements
Relative humidity 65%
Wind chill 22°F
Density altitude -1695 ft.
Remarks
Fully automated report.
Automated weather observing station with precipitation discriminator.
METAR KIGQ 280515Z AUTO 02006KT 10SM SCT027 SCT032 OVC041 M02/M07 A3021 RMK AO2 T10161073

Settings

Location code

InnerDrive.Weather 4.0.6770.0 Release CLR 4.0.30319.42000
Copyright ©2018 Inner Drive Technology. All rights reserved. Portions Copyright ©1986-2018 David Braverman.

Find weather

Site navigation


Skip Navigation Links

Place info

Page info

PayPal - The safer, easier way to pay online!

Return home.

Copyright ©2022 Inner Drive Technology. Purveyors of fine, hand-crafted computer software. Page printed 2022-01-28T05:25:02 UTC.